sensor_id;sensor_type;location;lat;lon;timestamp;pressure;altitude;pressure_sealevel;temperature;humidity
61039;BME280;46919;45.816;3.104;2023-01-23T00:01:04;98884.75;;;-1.47;100.00
61039;BME280;46919;45.816;3.104;2023-01-23T00:03:30;98884.16;;;-1.51;100.00
61039;BME280;46919;45.816;3.104;2023-01-23T00:06:03;98894.59;;;-1.49;100.00
61039;BME280;46919;45.816;3.104;2023-01-23T00:08:29;98882.34;;;-1.50;100.00
61039;BME280;46919;45.816;3.104;2023-01-23T00:10:55;98874.25;;;-1.49;100.00
61039;BME280;46919;45.816;3.104;2023-01-23T00:13:21;98878.69;;;-1.49;100.00
61039;BME280;46919;45.816;3.104;2023-01-23T00:15:47;98874.38;;;-1.50;100.00
61039;BME280;46919;45.816;3.104;2023-01-23T00:18:12;98868.09;;;-1.49;100.00
61039;BME280;46919;45.816;3.104;2023-01-23T00:20:39;98870.91;;;-1.51;99.95
61039;BME280;46919;45.816;3.104;2023-01-23T00:23:05;98867.50;;;-1.53;100.00
61039;BME280;46919;45.816;3.104;2023-01-23T00:25:32;98863.78;;;-1.50;100.00
61039;BME280;46919;45.816;3.104;2023-01-23T00:27:58;98864.94;;;-1.43;100.00
61039;BME280;46919;45.816;3.104;2023-01-23T00:30:23;98863.28;;;-1.44;100.00
61039;BME280;46919;45.816;3.104;2023-01-23T00:32:49;98853.75;;;-1.47;100.00
61039;BME280;46919;45.816;3.104;2023-01-23T00:35:14;98867.13;;;-1.48;100.00
61039;BME280;46919;45.816;3.104;2023-01-23T00:37:39;98855.81;;;-1.50;100.00
61039;BME280;46919;45.816;3.104;2023-01-23T00:40:05;98848.81;;;-1.51;100.00
61039;BME280;46919;45.816;3.104;2023-01-23T00:42:31;98855.56;;;-1.47;100.00
61039;BME280;46919;45.816;3.104;2023-01-23T00:44:56;98856.53;;;-1.48;100.00
61039;BME280;46919;45.816;3.104;2023-01-23T00:47:22;98862.53;;;-1.46;100.00
61039;BME280;46919;45.816;3.104;2023-01-23T00:49:47;98868.81;;;-1.47;100.00
61039;BME280;46919;45.816;3.104;2023-01-23T00:52:13;98870.91;;;-1.51;100.00
61039;BME280;46919;45.816;3.104;2023-01-23T00:54:38;98862.94;;;-1.51;100.00
61039;BME280;46919;45.816;3.104;2023-01-23T00:57:04;98862.06;;;-1.51;100.00
61039;BME280;46919;45.816;3.104;2023-01-23T00:59:29;98861.00;;;-1.49;100.00
61039;BME280;46919;45.816;3.104;2023-01-23T01:01:54;98858.22;;;-1.47;100.00
61039;BME280;46919;45.816;3.104;2023-01-23T01:04:20;98859.88;;;-1.46;100.00
61039;BME280;46919;45.816;3.104;2023-01-23T01:06:45;98858.09;;;-1.46;100.00
61039;BME280;46919;45.816;3.104;2023-01-23T01:09:11;98854.47;;;-1.44;100.00
61039;BME280;46919;45.816;3.104;2023-01-23T01:11:37;98858.69;;;-1.42;100.00
61039;BME280;46919;45.816;3.104;2023-01-23T01:14:03;98857.84;;;-1.42;100.00
61039;BME280;46919;45.816;3.104;2023-01-23T01:16:28;98857.97;;;-1.44;100.00
61039;BME280;46919;45.816;3.104;2023-01-23T01:18:54;98853.75;;;-1.47;100.00
61039;BME280;46919;45.816;3.104;2023-01-23T01:21:19;98859.06;;;-1.47;100.00
61039;BME280;46919;45.816;3.104;2023-01-23T01:23:45;98860.00;;;-1.48;100.00
61039;BME280;46919;45.816;3.104;2023-01-23T01:26:11;98856.28;;;-1.45;100.00
61039;BME280;46919;45.816;3.104;2023-01-23T01:28:38;98859.63;;;-1.43;100.00
61039;BME280;46919;45.816;3.104;2023-01-23T01:31:10;98857.47;;;-1.49;100.00
61039;BME280;46919;45.816;3.104;2023-01-23T01:33:37;98865.31;;;-1.48;100.00
61039;BME280;46919;45.816;3.104;2023-01-23T01:36:10;98860.75;;;-1.46;100.00
61039;BME280;46919;45.816;3.104;2023-01-23T01:38:36;98838.44;;;-1.43;100.00
61039;BME280;46919;45.816;3.104;2023-01-23T01:41:02;98845.31;;;-1.40;100.00
61039;BME280;46919;45.816;3.104;2023-01-23T01:43:28;98841.81;;;-1.41;99.89
61039;BME280;46919;45.816;3.104;2023-01-23T01:49:05;98848.31;;;-1.45;99.94
61039;BME280;46919;45.816;3.104;2023-01-23T01:51:36;98842.06;;;-1.44;99.93
61039;BME280;46919;45.816;3.104;2023-01-23T01:56:43;98849.16;;;-1.44;100.00
61039;BME280;46919;45.816;3.104;2023-01-23T01:59:10;98847.38;;;-1.44;100.00
61039;BME280;46919;45.816;3.104;2023-01-23T02:01:38;98851.81;;;-1.44;99.80
61039;BME280;46919;45.816;3.104;2023-01-23T02:04:05;98856.53;;;-1.48;100.00
61039;BME280;46919;45.816;3.104;2023-01-23T02:06:31;98842.78;;;-1.42;99.93
61039;BME280;46919;45.816;3.104;2023-01-23T02:09:04;98845.94;;;-1.48;100.00
61039;BME280;46919;45.816;3.104;2023-01-23T02:11:31;98837.22;;;-1.39;99.88
61039;BME280;46919;45.816;3.104;2023-01-23T02:13:57;98844.59;;;-1.42;99.68
61039;BME280;46919;45.816;3.104;2023-01-23T02:16:26;98842.06;;;-1.44;99.32
61039;BME280;46919;45.816;3.104;2023-01-23T02:18:57;98821.94;;;-1.47;99.29
61039;BME280;46919;45.816;3.104;2023-01-23T02:21:23;98826.16;;;-1.44;99.86
61039;BME280;46919;45.816;3.104;2023-01-23T02:23:55;98836.50;;;-1.41;98.97
61039;BME280;46919;45.816;3.104;2023-01-23T02:26:33;98845.19;;;-1.39;99.46
61039;BME280;46919;45.816;3.104;2023-01-23T02:29:02;98846.88;;;-1.38;98.98
61039;BME280;46919;45.816;3.104;2023-01-23T02:31:27;98839.03;;;-1.39;98.74
61039;BME280;46919;45.816;3.104;2023-01-23T02:33:55;98848.19;;;-1.43;99.23
61039;BME280;46919;45.816;3.104;2023-01-23T02:36:27;98845.94;;;-1.48;99.58
61039;BME280;46919;45.816;3.104;2023-01-23T02:39:10;98850.16;;;-1.46;99.30
61039;BME280;46919;45.816;3.104;2023-01-23T02:41:39;98852.69;;;-1.44;98.96
61039;BME280;46919;45.816;3.104;2023-01-23T02:44:12;98844.22;;;-1.49;99.20
61039;BME280;46919;45.816;3.104;2023-01-23T02:46:39;98848.81;;;-1.51;99.15
61039;BME280;46919;45.816;3.104;2023-01-23T02:49:05;98835.31;;;-1.48;99.57
61039;BME280;46919;45.816;3.104;2023-01-23T02:51:30;98841.19;;;-1.44;98.98
61039;BME280;46919;45.816;3.104;2023-01-23T02:53:57;98847.63;;;-1.47;98.90
61039;BME280;46919;45.816;3.104;2023-01-23T02:56:22;98856.41;;;-1.47;99.18
61039;BME280;46919;45.816;3.104;2023-01-23T02:58:48;98847.84;;;-1.39;98.91
61039;BME280;46919;45.816;3.104;2023-01-23T03:01:31;98854.34;;;-1.43;99.18
61039;BME280;46919;45.816;3.104;2023-01-23T03:04:03;98849.78;;;-1.41;98.70
61039;BME280;46919;45.816;3.104;2023-01-23T03:06:31;98851.69;;;-1.43;98.88
61039;BME280;46919;45.816;3.104;2023-01-23T03:09:05;98843.47;;;-1.40;99.35
61039;BME280;46919;45.816;3.104;2023-01-23T03:11:32;98850.72;;;-1.42;99.14
61039;BME280;46919;45.816;3.104;2023-01-23T03:13:58;98850.97;;;-1.45;99.16
61039;BME280;46919;45.816;3.104;2023-01-23T03:16:23;98845.94;;;-1.48;99.01
61039;BME280;46919;45.816;3.104;2023-01-23T03:18:49;98849.53;;;-1.49;99.61
61039;BME280;46919;45.816;3.104;2023-01-23T03:21:15;98836.88;;;-1.46;99.79
61039;BME280;46919;45.816;3.104;2023-01-23T03:23:40;98829.53;;;-1.42;99.54
61039;BME280;46919;45.816;3.104;2023-01-23T03:26:09;98826.03;;;-1.42;99.50
61039;BME280;46919;45.816;3.104;2023-01-23T03:28:34;98815.94;;;-1.49;99.92
61039;BME280;46919;45.816;3.104;2023-01-23T03:31:18;98818.31;;;-1.46;100.00
61039;BME280;46919;45.816;3.104;2023-01-23T03:33:44;98809.50;;;-1.46;99.98
61039;BME280;46919;45.816;3.104;2023-01-23T03:36:10;98822.53;;;-1.43;99.75
61039;BME280;46919;45.816;3.104;2023-01-23T03:38:37;98823.63;;;-1.46;100.00
61039;BME280;46919;45.816;3.104;2023-01-23T03:41:03;98823.50;;;-1.44;100.00
61039;BME280;46919;45.816;3.104;2023-01-23T03:43:47;98821.94;;;-1.47;99.85
61039;BME280;46919;45.816;3.104;2023-01-23T03:46:12;98826.41;;;-1.47;100.00
61039;BME280;46919;45.816;3.104;2023-01-23T03:48:38;98817.47;;;-1.46;100.00
61039;BME280;46919;45.816;3.104;2023-01-23T03:51:04;98820.97;;;-1.46;100.00
61039;BME280;46919;45.816;3.104;2023-01-23T03:53:30;98818.91;;;-1.42;100.00
61039;BME280;46919;45.816;3.104;2023-01-23T03:55:55;98817.47;;;-1.46;100.00
61039;BME280;46919;45.816;3.104;2023-01-23T03:58:21;98817.59;;;-1.48;100.00
61039;BME280;46919;45.816;3.104;2023-01-23T04:00:46;98819.16;;;-1.45;99.99
61039;BME280;46919;45.816;3.104;2023-01-23T04:03:11;98808.56;;;-1.45;100.00
61039;BME280;46919;45.816;3.104;2023-01-23T04:05:37;98810.50;;;-1.47;100.00
61039;BME280;46919;45.816;3.104;2023-01-23T04:08:02;98823.13;;;-1.39;100.00
61039;BME280;46919;45.816;3.104;2023-01-23T04:10:28;98817.84;;;-1.39;100.00
61039;BME280;46919;45.816;3.104;2023-01-23T04:12:53;98811.66;;;-1.40;100.00
61039;BME280;46919;45.816;3.104;2023-01-23T04:15:19;98810.25;;;-1.44;100.00
61039;BME280;46919;45.816;3.104;2023-01-23T04:17:44;98805.78;;;-1.43;100.00
61039;BME280;46919;45.816;3.104;2023-01-23T04:20:11;98808.56;;;-1.45;100.00
61039;BME280;46919;45.816;3.104;2023-01-23T04:22:37;98806.63;;;-1.43;100.00
61039;BME280;46919;45.816;3.104;2023-01-23T04:25:03;98807.59;;;-1.44;100.00
61039;BME280;46919;45.816;3.104;2023-01-23T04:27:30;98825.16;;;-1.43;100.00
61039;BME280;46919;45.816;3.104;2023-01-23T04:29:55;98814.69;;;-1.44;100.00
61039;BME280;46919;45.816;3.104;2023-01-23T04:32:22;98816.50;;;-1.45;100.00
61039;BME280;46919;45.816;3.104;2023-01-23T04:34:47;98813.84;;;-1.45;100.00
61039;BME280;46919;45.816;3.104;2023-01-23T04:37:13;98813.34;;;-1.39;100.00
61039;BME280;46919;45.816;3.104;2023-01-23T04:39:38;98813.72;;;-1.43;100.00
61039;BME280;46919;45.816;3.104;2023-01-23T04:42:04;98813.03;;;-1.46;100.00
61039;BME280;46919;45.816;3.104;2023-01-23T04:44:29;98815.81;;;-1.47;100.00
61039;BME280;46919;45.816;3.104;2023-01-23T04:46:55;98810.75;;;-1.50;100.00
61039;BME280;46919;45.816;3.104;2023-01-23T04:49:21;98816.75;;;-1.48;100.00
61039;BME280;46919;45.816;3.104;2023-01-23T04:51:47;98815.34;;;-1.52;100.00
61039;BME280;46919;45.816;3.104;2023-01-23T04:54:14;98811.47;;;-1.48;100.00
61039;BME280;46919;45.816;3.104;2023-01-23T04:56:40;98807.38;;;-1.52;100.00
61039;BME280;46919;45.816;3.104;2023-01-23T04:59:06;98807.97;;;-1.49;100.00
61039;BME280;46919;45.816;3.104;2023-01-23T05:01:32;98806.03;;;-1.47;100.00
61039;BME280;46919;45.816;3.104;2023-01-23T05:03:57;98809.75;;;-1.49;100.00
61039;BME280;46919;45.816;3.104;2023-01-23T05:06:23;98810.38;;;-1.46;100.00
61039;BME280;46919;45.816;3.104;2023-01-23T05:08:48;98802.53;;;-1.47;100.00
61039;BME280;46919;45.816;3.104;2023-01-23T05:11:14;98822.06;;;-1.48;100.00
61039;BME280;46919;45.816;3.104;2023-01-23T05:13:40;98809.25;;;-1.43;100.00
61039;BME280;46919;45.816;3.104;2023-01-23T05:16:06;98801.44;;;-1.44;100.00
61039;BME280;46919;45.816;3.104;2023-01-23T05:18:31;98802.28;;;-1.44;100.00
61039;BME280;46919;45.816;3.104;2023-01-23T05:20:56;98799.91;;;-1.47;100.00
61039;BME280;46919;45.816;3.104;2023-01-23T05:23:22;98793.47;;;-1.44;100.00
61039;BME280;46919;45.816;3.104;2023-01-23T05:25:47;98790.13;;;-1.47;99.95
61039;BME280;46919;45.816;3.104;2023-01-23T05:28:13;98790.69;;;-1.43;100.00
61039;BME280;46919;45.816;3.104;2023-01-23T05:30:38;98796.25;;;-1.46;100.00
61039;BME280;46919;45.816;3.104;2023-01-23T05:33:03;98789.16;;;-1.46;100.00
61039;BME280;46919;45.816;3.104;2023-01-23T05:35:29;98785.06;;;-1.50;100.00
61039;BME280;46919;45.816;3.104;2023-01-23T05:37:55;98779.88;;;-1.51;100.00
61039;BME280;46919;45.816;3.104;2023-01-23T05:40:23;98777.13;;;-1.50;100.00
61039;BME280;46919;45.816;3.104;2023-01-23T05:42:49;98775.56;;;-1.52;100.00
61039;BME280;46919;45.816;3.104;2023-01-23T05:45:15;98779.63;;;-1.48;100.00
61039;BME280;46919;45.816;3.104;2023-01-23T05:47:40;98777.00;;;-1.48;100.00
61039;BME280;46919;45.816;3.104;2023-01-23T05:50:07;98787.47;;;-1.47;100.00
61039;BME280;46919;45.816;3.104;2023-01-23T05:52:34;98773.63;;;-1.50;100.00
61039;BME280;46919;45.816;3.104;2023-01-23T05:55:00;98780.00;;;-1.53;100.00
61039;BME280;46919;45.816;3.104;2023-01-23T05:57:25;98775.44;;;-1.51;100.00
61039;BME280;46919;45.816;3.104;2023-01-23T05:59:51;98775.03;;;-1.46;100.00
61039;BME280;46919;45.816;3.104;2023-01-23T06:02:16;98778.69;;;-1.47;100.00
61039;BME280;46919;45.816;3.104;2023-01-23T06:04:41;98762.97;;;-1.39;100.00
61039;BME280;46919;45.816;3.104;2023-01-23T06:07:17;98760.31;;;-1.39;100.00
61039;BME280;46919;45.816;3.104;2023-01-23T06:09:43;98765.63;;;-1.39;99.35
61039;BME280;46919;45.816;3.104;2023-01-23T06:12:09;98766.59;;;-1.40;99.71
61039;BME280;46919;45.816;3.104;2023-01-23T06:14:35;98769.97;;;-1.38;99.64
61039;BME280;46919;45.816;3.104;2023-01-23T06:17:01;98775.66;;;-1.42;99.50
61039;BME280;46919;45.816;3.104;2023-01-23T06:19:26;98775.41;;;-1.39;99.15
61039;BME280;46919;45.816;3.104;2023-01-23T06:21:52;98776.38;;;-1.40;99.13
61039;BME280;46919;45.816;3.104;2023-01-23T06:24:17;98778.44;;;-1.44;99.05
61039;BME280;46919;45.816;3.104;2023-01-23T06:26:43;98778.19;;;-1.41;99.74
61039;BME280;46919;45.816;3.104;2023-01-23T06:29:08;98775.66;;;-1.42;99.55
61039;BME280;46919;45.816;3.104;2023-01-23T06:31:34;98778.44;;;-1.44;99.70
61039;BME280;46919;45.816;3.104;2023-01-23T06:34:00;98787.94;;;-1.41;99.73
61039;BME280;46919;45.816;3.104;2023-01-23T06:36:26;98780.84;;;-1.41;99.34
61039;BME280;46919;45.816;3.104;2023-01-23T06:38:51;98775.53;;;-1.41;98.78
61039;BME280;46919;45.816;3.104;2023-01-23T06:41:17;98783.50;;;-1.41;99.55
61039;BME280;46919;45.816;3.104;2023-01-23T06:43:42;98787.09;;;-1.42;99.58
61039;BME280;46919;45.816;3.104;2023-01-23T06:46:09;98788.53;;;-1.38;99.12
61039;BME280;46919;45.816;3.104;2023-01-23T06:48:35;98791.31;;;-1.39;99.26
61039;BME280;46919;45.816;3.104;2023-01-23T06:51:01;98788.78;;;-1.41;99.74
61039;BME280;46919;45.816;3.104;2023-01-23T06:53:26;98785.03;;;-1.38;99.19
61039;BME280;46919;45.816;3.104;2023-01-23T06:55:52;98787.41;;;-1.35;99.26
61039;BME280;46919;45.816;3.104;2023-01-23T06:58:18;98802.00;;;-1.30;98.87
61039;BME280;46919;45.816;3.104;2023-01-23T07:00:44;98798.34;;;-1.29;98.41
61039;BME280;46919;45.816;3.104;2023-01-23T07:03:11;98800.56;;;-1.34;98.90
61039;BME280;46919;45.816;3.104;2023-01-23T07:05:38;98796.63;;;-1.39;98.75
61039;BME280;46919;45.816;3.104;2023-01-23T07:08:06;98800.22;;;-1.40;99.99
61039;BME280;46919;45.816;3.104;2023-01-23T07:10:33;98795.63;;;-1.38;99.42
61039;BME280;46919;45.816;3.104;2023-01-23T07:12:58;98805.03;;;-1.34;99.39
61039;BME280;46919;45.816;3.104;2023-01-23T07:15:23;98806.97;;;-1.36;99.83
61039;BME280;46919;45.816;3.104;2023-01-23T07:17:49;98804.91;;;-1.33;99.33
61039;BME280;46919;45.816;3.104;2023-01-23T07:20:14;98798.03;;;-1.35;99.67
61039;BME280;46919;45.816;3.104;2023-01-23T07:22:40;98801.66;;;-1.36;99.32
61039;BME280;46919;45.816;3.104;2023-01-23T07:25:06;98796.94;;;-1.33;99.71
61039;BME280;46919;45.816;3.104;2023-01-23T07:27:32;98799.97;;;-1.37;99.62
61039;BME280;46919;45.816;3.104;2023-01-23T07:29:57;98809.50;;;-1.35;99.95
61039;BME280;46919;45.816;3.104;2023-01-23T07:32:23;98812.59;;;-1.30;99.75
61039;BME280;46919;45.816;3.104;2023-01-23T07:34:48;98816.34;;;-1.32;99.62
61039;BME280;46919;45.816;3.104;2023-01-23T07:37:13;98810.91;;;-1.31;99.96
61039;BME280;46919;45.816;3.104;2023-01-23T07:39:39;98813.56;;;-1.31;100.00
61039;BME280;46919;45.816;3.104;2023-01-23T07:42:04;98812.84;;;-1.33;100.00
61039;BME280;46919;45.816;3.104;2023-01-23T07:44:30;98819.56;;;-1.29;100.00
61039;BME280;46919;45.816;3.104;2023-01-23T07:46:55;98813.19;;;-1.26;100.00
61039;BME280;46919;45.816;3.104;2023-01-23T07:49:21;98805.34;;;-1.28;100.00
61039;BME280;46919;45.816;3.104;2023-01-23T07:51:46;98806.06;;;-1.25;100.00
61039;BME280;46919;45.816;3.104;2023-01-23T07:54:11;98788.22;;;-1.23;99.42
61039;BME280;46919;45.816;3.104;2023-01-23T07:56:37;98797.41;;;-1.28;100.00
61039;BME280;46919;45.816;3.104;2023-01-23T07:59:02;98793.06;;;-1.29;100.00
61039;BME280;46919;45.816;3.104;2023-01-23T08:01:28;98801.50;;;-1.23;100.00
61039;BME280;46919;45.816;3.104;2023-01-23T08:03:53;98797.91;;;-1.13;99.14
61039;BME280;46919;45.816;3.104;2023-01-23T08:06:19;98794.19;;;-1.10;98.94
61039;BME280;46919;45.816;3.104;2023-01-23T08:08:47;98793.22;;;-1.09;98.76
61039;BME280;46919;45.816;3.104;2023-01-23T08:11:13;98797.53;;;-1.08;98.94
61039;BME280;46919;45.816;3.104;2023-01-23T08:13:39;98793.81;;;-1.05;98.41
61039;BME280;46919;45.816;3.104;2023-01-23T08:16:05;98795.50;;;-1.04;98.09
61039;BME280;46919;45.816;3.104;2023-01-23T08:18:31;98796.06;;;-1.01;97.82
61039;BME280;46919;45.816;3.104;2023-01-23T08:20:59;98789.06;;;-1.02;97.58
61039;BME280;46919;45.816;3.104;2023-01-23T08:23:32;98790.06;;;-1.03;97.75
61039;BME280;46919;45.816;3.104;2023-01-23T08:26:00;98794.38;;;-1.02;98.05
61039;BME280;46919;45.816;3.104;2023-01-23T08:28:26;98798.03;;;-1.03;97.78
61039;BME280;46919;45.816;3.104;2023-01-23T08:30:52;98795.25;;;-1.01;97.72
61039;BME280;46919;45.816;3.104;2023-01-23T08:33:18;98808.38;;;-1.00;97.40
61039;BME280;46919;45.816;3.104;2023-01-23T08:35:54;98812.00;;;-1.01;97.19
61039;BME280;46919;45.816;3.104;2023-01-23T08:38:20;98813.56;;;-0.98;97.54
61039;BME280;46919;45.816;3.104;2023-01-23T08:40:47;98815.09;;;-0.96;97.05
61039;BME280;46919;45.816;3.104;2023-01-23T08:43:14;98808.97;;;-0.96;96.86
61039;BME280;46919;45.816;3.104;2023-01-23T08:45:40;98801.13;;;-0.98;97.08
61039;BME280;46919;45.816;3.104;2023-01-23T08:48:07;98802.28;;;-0.91;97.22
61039;BME280;46919;45.816;3.104;2023-01-23T08:50:32;98795.44;;;-0.93;96.85
61039;BME280;46919;45.816;3.104;2023-01-23T08:52:58;98802.81;;;-0.97;97.21
61039;BME280;46919;45.816;3.104;2023-01-23T08:55:23;98805.19;;;-0.94;97.84
61039;BME280;46919;45.816;3.104;2023-01-23T08:57:49;98805.34;;;-0.95;97.62
61039;BME280;46919;45.816;3.104;2023-01-23T09:00:15;98814.38;;;-0.98;97.19
61039;BME280;46919;45.816;3.104;2023-01-23T09:02:40;98818.00;;;-0.99;97.23
61039;BME280;46919;45.816;3.104;2023-01-23T09:05:06;98814.84;;;-0.93;97.18
61039;BME280;46919;45.816;3.104;2023-01-23T09:07:31;98818.31;;;-0.92;96.50
61039;BME280;46919;45.816;3.104;2023-01-23T09:10:00;98825.19;;;-0.89;96.81
61039;BME280;46919;45.816;3.104;2023-01-23T09:12:26;98822.09;;;-0.95;97.16
61039;BME280;46919;45.816;3.104;2023-01-23T09:14:51;98822.09;;;-0.95;97.12
61039;BME280;46919;45.816;3.104;2023-01-23T09:17:17;98834.13;;;-0.91;97.08
61039;BME280;46919;45.816;3.104;2023-01-23T09:19:42;98831.34;;;-0.89;97.46
61039;BME280;46919;45.816;3.104;2023-01-23T09:22:08;98826.50;;;-0.84;96.96
61039;BME280;46919;45.816;3.104;2023-01-23T09:24:33;98822.47;;;-0.78;96.78
61039;BME280;46919;45.816;3.104;2023-01-23T09:26:58;98819.81;;;-0.78;96.40
61039;BME280;46919;45.816;3.104;2023-01-23T09:29:24;98816.19;;;-0.77;96.94
61039;BME280;46919;45.816;3.104;2023-01-23T09:31:49;98817.16;;;-0.78;96.16
61039;BME280;46919;45.816;3.104;2023-01-23T09:34:14;98820.22;;;-0.83;96.63
61039;BME280;46919;45.816;3.104;2023-01-23T09:36:40;98822.03;;;-0.83;97.24
61039;BME280;46919;45.816;3.104;2023-01-23T09:39:05;98808.50;;;-0.80;97.37
61039;BME280;46919;45.816;3.104;2023-01-23T09:41:31;98808.81;;;-0.74;96.44
61039;BME280;46919;45.816;3.104;2023-01-23T09:46:31;98816.38;;;-0.69;96.45
61039;BME280;46919;45.816;3.104;2023-01-23T09:49:03;98812.38;;;-0.63;96.09
61039;BME280;46919;45.816;3.104;2023-01-23T09:52:36;98810.25;;;-0.69;96.01
61039;BME280;46919;45.816;3.104;2023-01-23T09:54:39;98811.34;;;-0.72;96.59
61039;BME280;46919;45.816;3.104;2023-01-23T09:57:29;98817.81;;;-0.65;95.90
61039;BME280;46919;45.816;3.104;2023-01-23T10:00:16;98809.22;;;-0.57;96.07
61039;BME280;46919;45.816;3.104;2023-01-23T10:02:45;98808.22;;;-0.56;95.55
61039;BME280;46919;45.816;3.104;2023-01-23T10:05:15;98810.03;;;-0.57;95.75
61039;BME280;46919;45.816;3.104;2023-01-23T10:18:48;98807.88;;;-0.42;95.59
61039;BME280;46919;45.816;3.104;2023-01-23T10:24:02;98806.78;;;-0.39;95.58
61039;BME280;46919;45.816;3.104;2023-01-23T10:26:33;98816.88;;;-0.33;94.78
61039;BME280;46919;45.816;3.104;2023-01-23T10:29:09;98812.13;;;-0.29;94.55
61039;BME280;46919;45.816;3.104;2023-01-23T10:31:42;98805.25;;;-0.32;94.87
61039;BME280;46919;45.816;3.104;2023-01-23T10:34:11;98805.72;;;-0.27;94.51
61039;BME280;46919;45.816;3.104;2023-01-23T10:42:10;98800.16;;;-0.24;94.61
61039;BME280;46919;45.816;3.104;2023-01-23T10:44:36;98784.47;;;-0.27;94.75
61039;BME280;46919;45.816;3.104;2023-01-23T10:47:05;98795.63;;;-0.33;94.15
61039;BME280;46919;45.816;3.104;2023-01-23T10:49:43;98778.91;;;-0.24;93.78
61039;BME280;46919;45.816;3.104;2023-01-23T10:52:28;98780.25;;;-0.29;93.09
61039;BME280;46919;45.816;3.104;2023-01-23T10:54:54;98772.84;;;-0.26;94.04
61039;BME280;46919;45.816;3.104;2023-01-23T10:57:22;98767.00;;;-0.20;93.82
61039;BME280;46919;45.816;3.104;2023-01-23T11:00:00;98772.03;;;-0.16;93.98
61039;BME280;46919;45.816;3.104;2023-01-23T11:02:33;98759.47;;;-0.14;92.40
61039;BME280;46919;45.816;3.104;2023-01-23T11:05:00;98764.97;;;-0.06;93.23
61039;BME280;46919;45.816;3.104;2023-01-23T11:07:31;98755.88;;;0.06;93.19
61039;BME280;46919;45.816;3.104;2023-01-23T11:12:34;98735.91;;;0.12;91.77
61039;BME280;46919;45.816;3.104;2023-01-23T11:15:22;98734.78;;;0.14;92.11
61039;BME280;46919;45.816;3.104;2023-01-23T11:17:49;98725.69;;;0.17;91.17
61039;BME280;46919;45.816;3.104;2023-01-23T11:25:44;98708.78;;;0.18;90.37
61039;BME280;46919;45.816;3.104;2023-01-23T11:39:53;98692.00;;;0.37;89.46
61039;BME280;46919;45.816;3.104;2023-01-23T11:42:23;98688.78;;;0.33;89.25
61039;BME280;46919;45.816;3.104;2023-01-23T11:44:51;98693.22;;;0.33;88.37
61039;BME280;46919;45.816;3.104;2023-01-23T11:47:35;98696.44;;;0.27;87.29
61039;BME280;46919;45.816;3.104;2023-01-23T12:08:58;98698.28;;;0.46;87.45
61039;BME280;46919;45.816;3.104;2023-01-23T12:11:35;98688.34;;;0.48;87.09
61039;BME280;46919;45.816;3.104;2023-01-23T12:25:36;98679.25;;;0.41;86.87
61039;BME280;46919;45.816;3.104;2023-01-23T12:28:25;98670.56;;;0.39;86.95
61039;BME280;46919;45.816;3.104;2023-01-23T12:42:25;98667.63;;;0.42;86.29
61039;BME280;46919;45.816;3.104;2023-01-23T12:45:19;98670.72;;;0.37;86.37
61039;BME280;46919;45.816;3.104;2023-01-23T12:47:51;98667.78;;;0.40;86.60
61039;BME280;46919;45.816;3.104;2023-01-23T12:50:29;98665.13;;;0.40;86.52
61039;BME280;46919;45.816;3.104;2023-01-23T12:53:02;98669.16;;;0.44;87.19
61039;BME280;46919;45.816;3.104;2023-01-23T12:55:38;98669.28;;;0.43;86.57
61039;BME280;46919;45.816;3.104;2023-01-23T12:58:08;98663.28;;;0.31;85.82
61039;BME280;46919;45.816;3.104;2023-01-23T13:06:25;98655.31;;;0.31;86.41
61039;BME280;46919;45.816;3.104;2023-01-23T13:09:00;98651.25;;;0.27;86.20
61039;BME280;46919;45.816;3.104;2023-01-23T13:14:35;98653.50;;;0.22;86.03
61039;BME280;46919;45.816;3.104;2023-01-23T13:17:37;98645.53;;;0.22;85.40
61039;BME280;46919;45.816;3.104;2023-01-23T13:23:24;98653.06;;;0.26;85.14
61039;BME280;46919;45.816;3.104;2023-01-23T13:28:55;98644.13;;;0.17;85.53
61039;BME280;46919;45.816;3.104;2023-01-23T13:31:43;98653.78;;;0.18;85.72
61039;BME280;46919;45.816;3.104;2023-01-23T13:36:43;98660.91;;;0.18;86.49
61039;BME280;46919;45.816;3.104;2023-01-23T13:39:28;98662.59;;;0.09;86.40
61039;BME280;46919;45.816;3.104;2023-01-23T13:45:15;98663.13;;;0.03;87.23
61039;BME280;46919;45.816;3.104;2023-01-23T13:48:15;98670.69;;;-0.02;88.60
61039;BME280;46919;45.816;3.104;2023-01-23T13:51:23;98663.81;;;-0.14;88.29
61039;BME280;46919;45.816;3.104;2023-01-23T13:53:50;98663.66;;;-0.13;88.68
61039;BME280;46919;45.816;3.104;2023-01-23T13:56:38;98661.28;;;-0.16;89.40
61039;BME280;46919;45.816;3.104;2023-01-23T13:59:26;98655.84;;;-0.14;89.31
61039;BME280;46919;45.816;3.104;2023-01-23T14:02:24;98656.13;;;-0.17;90.00
61039;BME280;46919;45.816;3.104;2023-01-23T14:05:14;98667.75;;;-0.19;90.55
61039;BME280;46919;45.816;3.104;2023-01-23T14:07:45;98667.59;;;-0.17;89.42
61039;BME280;46919;45.816;3.104;2023-01-23T14:10:19;98673.31;;;-0.22;90.58
61039;BME280;46919;45.816;3.104;2023-01-23T14:12:46;98667.31;;;-0.24;90.58
61039;BME280;46919;45.816;3.104;2023-01-23T14:15:22;98672.34;;;-0.21;90.09
61039;BME280;46919;45.816;3.104;2023-01-23T14:18:46;98675.72;;;-0.19;90.62
61039;BME280;46919;45.816;3.104;2023-01-23T14:21:22;98674.44;;;-0.14;89.65
61039;BME280;46919;45.816;3.104;2023-01-23T14:23:53;98678.09;;;-0.15;89.73
61039;BME280;46919;45.816;3.104;2023-01-23T14:26:24;98673.88;;;-0.18;89.54
61039;BME280;46919;45.816;3.104;2023-01-23T14:29:14;98676.25;;;-0.15;89.76
61039;BME280;46919;45.816;3.104;2023-01-23T14:31:40;98678.09;;;-0.15;90.03
61039;BME280;46919;45.816;3.104;2023-01-23T14:34:14;98678.78;;;-0.13;89.86
61039;BME280;46919;45.816;3.104;2023-01-23T14:36:44;98674.44;;;-0.14;89.15
61039;BME280;46919;45.816;3.104;2023-01-23T14:39:21;98674.31;;;-0.13;89.63
61039;BME280;46919;45.816;3.104;2023-01-23T14:41:48;98667.34;;;-0.14;89.32
61039;BME280;46919;45.816;3.104;2023-01-23T14:44:20;98676.13;;;-0.13;89.06
61039;BME280;46919;45.816;3.104;2023-01-23T14:46:55;98679.88;;;-0.16;89.34
61039;BME280;46919;45.816;3.104;2023-01-23T14:49:39;98674.56;;;-0.16;89.13
61039;BME280;46919;45.816;3.104;2023-01-23T14:52:06;98681.72;;;-0.16;89.27
61039;BME280;46919;45.816;3.104;2023-01-23T14:54:33;98674.44;;;-0.14;89.00
61039;BME280;46919;45.816;3.104;2023-01-23T14:57:00;98661.44;;;-0.17;88.63